Grenfell, Canada
Current Conditions -  °F | °C
As of 12:00 AM on Monday 26 Jan 2015 (Local Time) from CYQV Reporting Station
Clear Clear  
Wind Chill: 29°   Ceiling: Unl
Heat Index: 39°   Visibility: 9mi
Dew Point: 30°   Wind: 23mph
Humidity: 70%   Direction: 290°WNW
Pressure: 29.64"   Gusts: 29mph
Location:  50.42°N, 102.92°W
Report Text: CYQV 260600Z AUTO 29020G25KT 9SM CLR 04/M01 A2964 RMK SLP061
Loading
Personal Weather Stations






























Interactive Weather Map New forecast layout! Learn more

10-Day Weather Forecast

Advertisements
Track Severe Weather on mobile